Shoshone, California Weather observations

Data are for observation ending at time listed.
 Day   Time    Ave.   Ave.  Ave.  Vector   Max.   Stn.    Total    Solar   Ave.  
  of    of     Air    Rel.  Wind   Wind    Wind   Baro.  Precip.   Rad.    Soil  
Year   Day     Temp.  Hum.  Speed  Dir.    Gust   Pres.                    Temp. 
2014   (PST)    F      %     mph   deg.    mph     mb.     in.     W/m2     F   
------------------------------------------------------------------------------
 204   12:00  103.2    11    4.6   160     13.0    966     0.00    1026    99999.0
 204   13:00  106.0     9    4.7   168     16.4    966     0.00    1022    99999.0
 204   14:00  107.5     8    5.3   191     14.5    965     0.00     961    99999.0
 204   15:00  109.1     8    4.6   165     17.7    964     0.00     839    99999.0
 204   16:00  109.9     8    3.7   171     10.9    963     0.00     668    99999.0
 204   17:00  110.5     7    3.2   163     11.8    962     0.00     466    99999.0
 204   18:00  109.0     7    4.9   181     13.4    962     0.00     253    99999.0
 204   19:00  106.6     7    4.6   185     10.2    962     0.00      62    99999.0
 204   20:00  103.8     8    3.6   190      8.5    962     0.00       0    99999.0
 204   21:00  101.3     8    4.3   188      8.2    962     0.00       0    99999.0
 204   22:00   99.3     8    3.6   204     12.3    963     0.00       0    99999.0
 204   23:00   95.2     9    3.3   330      9.4    963     0.00       0    99999.0
 205    0:00   89.9    11    3.6    75      8.9    963     0.00       0    99999.0
 205    1:00   87.0    11    2.7    84      6.4    963     0.00       0    99999.0
 205    2:00   84.0    12    2.0    68      6.2    963     0.00       0    99999.0
 205    3:00   84.6    13    2.0    78      4.4    963     0.00       0    99999.0
 205    4:00   81.1    15    2.5    54      5.4    963     0.00       0    99999.0
 205    5:00   75.8    17    1.1    49      3.7    963     0.00       2    99999.0
 205    6:00   74.4    18    1.7    41      4.7    964     0.00      57    99999.0
 205    7:00   82.7    16    1.3    50      3.8    964     0.00     283    99999.0
 205    8:00   91.3    13    1.0    23      4.7    965     0.00     502    99999.0
 205    9:00   96.0    12    3.1   158      9.4    965     0.00     698    99999.0
 205   10:00   99.4    10    5.5   161     11.5    964     0.00     858    99999.0
 205   11:00  103.2     8    5.3   162     12.1    964     0.00     969    99999.0

Return to Shoshone, California graphs page.


Western Regional Climate Center,wrcc@dri.edu